Iberica Hav — C6YI3 — position and weather

sailwx.info

Track history (hours):
 
Tides and Currents Weather Stations Pressure Air Temp Water Temp Dewpoint Dewpoint Depression Visibility Wind Speed Wind Dir Waves Ship Positions

Iberica Hav

Last reported at 2015-Jul-04 06:33 UTC. Time now 2015-Jul-04 06:56 UTC.
Position N 56°50' E 012°06'.

Length 88 m; draft 2.7 m.

Type: Cargo ship. MMSI: 311034400.

Date/timePositionNaut miles runAvg speedWind from/ knotsBaromVisibWave heightAir tempDewpointWater temp
2015-Jul-04 06:33N 56°50' E 012°06'9 9.4
2015-Jul-04 05:33N 56°59' E 012°00'9 9.2
2015-Jul-04 04:34N 57°07' E 011°55'9 8.9
2015-Jul-04 03:33N 57°16' E 011°50'9 8.8
2015-Jul-04 02:34N 57°24' E 011°44'9 8.9
2015-Jul-04 01:33N 57°32' E 011°39'8 8.1
2015-Jul-04 00:34N 57°40' E 011°46'8 8.1
2015-Jul-03 23:33N 57°44' E 011°60'7 7.3
2015-Jul-03 22:33N 57°51' E 012°01'9 9.4
2015-Jul-03 21:34N 57°59' E 012°08'9 8.8
2015-Jul-03 20:33N 58°08' E 012°07'7 7.3
2015-Jul-03 19:34N 58°15' E 012°13'2 1.9
2015-Jul-03 18:33N 58°16' E 012°16'4 4.4
2015-Jul-03 17:34N 58°20' E 012°20'3 3.2
2015-Jul-03 16:33N 58°23' E 012°19'6 5.5
2015-Jul-03 15:33N 58°27' E 012°25'2 0.1
2015-Jul-01 15:32N 58°28' E 012°29'8 8.2
2015-Jul-01 14:33N 58°23' E 012°18'0 0.0
2015-Jul-01 13:31N 58°23' E 012°18'1 0.9
2015-Jul-01 12:33N 58°22' E 012°19'3 2.8
2015-Jul-01 11:33N 58°19' E 012°19'4 3.7
2015-Jul-01 10:33N 58°16' E 012°16'1 0.6
2015-Jul-01 09:33N 58°16' E 012°15'7 7.0
2015-Jul-01 08:33N 58°10' E 012°07'3 3.5
2015-Jul-01 07:33N 58°06' E 012°08'7 7.3
2015-Jul-01 06:33N 57°59' E 012°08'7 7.4
2015-Jul-01 05:33N 57°52' E 012°01'5 5.4
2015-Jul-01 04:33N 57°47' E 012°00'5 4.6
2015-Jul-01 03:33N 57°43' E 011°58'7 7.4
2015-Jul-01 02:33N 57°39' E 011°45'6 6.4
2015-Jul-01 01:33N 57°34' E 011°40'6 6.3
2015-Jul-01 00:33N 57°28' E 011°42'6 6.2
2015-Jun-30 23:33N 57°22' E 011°46'7 6.5
2015-Jun-30 22:31N 57°15' E 011°50'7 6.8
2015-Jun-30 21:33N 57°09' E 011°54'7 6.9
2015-Jun-30 20:33N 57°03' E 011°58'7 6.9
2015-Jun-30 19:34N 56°56' E 012°02'7 6.7
2015-Jun-30 18:34N 56°50' E 012°06'7 6.9
2015-Jun-30 17:34N 56°43' E 012°10'7 6.7
2015-Jun-30 16:34N 56°37' E 012°14'8 7.7
2015-Jun-30 15:31N 56°29' E 012°19'8 8.3
2015-Jun-30 14:33N 56°22' E 012°23'8 8.4
2015-Jun-30 13:33N 56°14' E 012°29'8 8.2
2015-Jun-30 12:34N 56°06' E 012°34'8 8.0
2015-Jun-30 11:34N 55°59' E 012°41'8 7.9
2015-Jun-30 10:34N 55°52' E 012°44'8 8.1
2015-Jun-30 09:34N 55°44' E 012°42'7 7.3
2015-Jun-30 08:33N 55°36' E 012°42'8 7.8
2015-Jun-30 07:33N 55°29' E 012°43'8 8.1
2015-Jun-30 06:33N 55°20' E 012°41'7 7.4
2015-Jun-30 05:33N 55°17' E 012°52'8 8.3
2015-Jun-30 04:33N 55°16' E 013°06'51 7.9
2015-Jun-29 22:08N 55°24' E 014°34'4 7.5
2015-Jun-29 21:33N 55°25' E 014°42'8 8.2
2015-Jun-29 20:33N 55°23' E 014°56'8 8.2
2015-Jun-29 19:33N 55°21' E 015°10'8 8.2
2015-Jun-29 18:33N 55°20' E 015°24'9 8.5
2015-Jun-29 17:33N 55°18' E 015°39'12 8.5
2015-Jun-29 16:09N 55°15' E 015°59'87 8.2
2015-Jun-29 05:33N 54°57' E 018°28'8 8.1
2015-Jun-29 04:33N 54°54' E 018°42'8 8.1
2015-Jun-29 03:32N 54°51' E 018°55'8 8.2
2015-Jun-29 02:33N 54°49' E 019°08'8 7.9
2015-Jun-29 01:33N 54°46' E 019°21'8 8.0
2015-Jun-29 00:33N 54°44' E 019°35'8 8.2
2015-Jun-28 23:33N 54°41' E 019°48'8 7.9
2015-Jun-28 22:33N 54°38' E 020°00'7 7.0
2015-Jun-28 21:30N 54°41' E 020°12'0 0.0
2015-Jun-28 19:33N 54°41' E 020°12'  
Track history (hours):
 
Tides and Currents Weather Stations Pressure Air Temp Water Temp Dewpoint Dewpoint Depression Visibility Wind Speed Wind Dir Waves Ship Positions

Iberica Hav

Last reported at 2015-Jul-04 06:33 UTC. Time now 2015-Jul-04 06:56 UTC.
Position N 56°50' E 012°06'.

Length 88 m; draft 2.7 m.

Type: Cargo ship. MMSI: 311034400.

Date/timePositionNaut miles runAvg speedWind from/ knotsBaromVisibWave heightAir tempDewpointWater temp
2015-Jul-04 06:33N 56°50' E 012°06'9 9.4
2015-Jul-04 05:33N 56°59' E 012°00'9 9.2
2015-Jul-04 04:34N 57°07' E 011°55'9 8.9
2015-Jul-04 03:33N 57°16' E 011°50'9 8.8
2015-Jul-04 02:34N 57°24' E 011°44'9 8.9
2015-Jul-04 01:33N 57°32' E 011°39'8 8.1
2015-Jul-04 00:34N 57°40' E 011°46'8 8.1
2015-Jul-03 23:33N 57°44' E 011°60'7 7.3
2015-Jul-03 22:33N 57°51' E 012°01'9 9.4
2015-Jul-03 21:34N 57°59' E 012°08'9 8.8
2015-Jul-03 20:33N 58°08' E 012°07'7 7.3
2015-Jul-03 19:34N 58°15' E 012°13'2 1.9
2015-Jul-03 18:33N 58°16' E 012°16'4 4.4
2015-Jul-03 17:34N 58°20' E 012°20'3 3.2
2015-Jul-03 16:33N 58°23' E 012°19'6 5.5
2015-Jul-03 15:33N 58°27' E 012°25'2 0.1
2015-Jul-01 15:32N 58°28' E 012°29'8 8.2
2015-Jul-01 14:33N 58°23' E 012°18'0 0.0
2015-Jul-01 13:31N 58°23' E 012°18'1 0.9
2015-Jul-01 12:33N 58°22' E 012°19'3 2.8
2015-Jul-01 11:33N 58°19' E 012°19'4 3.7
2015-Jul-01 10:33N 58°16' E 012°16'1 0.6
2015-Jul-01 09:33N 58°16' E 012°15'7 7.0
2015-Jul-01 08:33N 58°10' E 012°07'3 3.5
2015-Jul-01 07:33N 58°06' E 012°08'7 7.3
2015-Jul-01 06:33N 57°59' E 012°08'7 7.4
2015-Jul-01 05:33N 57°52' E 012°01'5 5.4
2015-Jul-01 04:33N 57°47' E 012°00'5 4.6
2015-Jul-01 03:33N 57°43' E 011°58'7 7.4
2015-Jul-01 02:33N 57°39' E 011°45'6 6.4
2015-Jul-01 01:33N 57°34' E 011°40'6 6.3
2015-Jul-01 00:33N 57°28' E 011°42'6 6.2
2015-Jun-30 23:33N 57°22' E 011°46'7 6.5
2015-Jun-30 22:31N 57°15' E 011°50'7 6.8
2015-Jun-30 21:33N 57°09' E 011°54'7 6.9
2015-Jun-30 20:33N 57°03' E 011°58'7 6.9
2015-Jun-30 19:34N 56°56' E 012°02'7 6.7
2015-Jun-30 18:34N 56°50' E 012°06'7 6.9
2015-Jun-30 17:34N 56°43' E 012°10'7 6.7
2015-Jun-30 16:34N 56°37' E 012°14'8 7.7
2015-Jun-30 15:31N 56°29' E 012°19'8 8.3
2015-Jun-30 14:33N 56°22' E 012°23'8 8.4
2015-Jun-30 13:33N 56°14' E 012°29'8 8.2
2015-Jun-30 12:34N 56°06' E 012°34'8 8.0
2015-Jun-30 11:34N 55°59' E 012°41'8 7.9
2015-Jun-30 10:34N 55°52' E 012°44'8 8.1
2015-Jun-30 09:34N 55°44' E 012°42'7 7.3
2015-Jun-30 08:33N 55°36' E 012°42'8 7.8
2015-Jun-30 07:33N 55°29' E 012°43'8 8.1
2015-Jun-30 06:33N 55°20' E 012°41'7 7.4
2015-Jun-30 05:33N 55°17' E 012°52'8 8.3
2015-Jun-30 04:33N 55°16' E 013°06'51 7.9
2015-Jun-29 22:08N 55°24' E 014°34'4 7.5
2015-Jun-29 21:33N 55°25' E 014°42'8 8.2
2015-Jun-29 20:33N 55°23' E 014°56'8 8.2
2015-Jun-29 19:33N 55°21' E 015°10'8 8.2
2015-Jun-29 18:33N 55°20' E 015°24'9 8.5
2015-Jun-29 17:33N 55°18' E 015°39'12 8.5
2015-Jun-29 16:09N 55°15' E 015°59'87 8.2
2015-Jun-29 05:33N 54°57' E 018°28'8 8.1
2015-Jun-29 04:33N 54°54' E 018°42'8 8.1
2015-Jun-29 03:32N 54°51' E 018°55'8 8.2
2015-Jun-29 02:33N 54°49' E 019°08'8 7.9
2015-Jun-29 01:33N 54°46' E 019°21'8 8.0
2015-Jun-29 00:33N 54°44' E 019°35'8 8.2
2015-Jun-28 23:33N 54°41' E 019°48'8 7.9
2015-Jun-28 22:33N 54°38' E 020°00'7 7.0
2015-Jun-28 21:30N 54°41' E 020°12'0 0.0
2015-Jun-28 19:33N 54°41' E 020°12'  

Dump ship's entire track history